Time;durP1;ratioP1;P1;durP2;ratioP2;P2;SDS_P1;SDS_P2;PMS_P1;PMS_P2;Temp;Humidity;BMP_temperature;BMP_pressure;BME280_temperature;BME280_humidity;BME280_pressure;Samples;Min_cycle;Max_cycle;Signal;HPM_P1;HPM_P2
2023/01/13 00:00:22;;;;;;;;;1.00;0.00;;;;;12.50;100.00;100846.25;5075409;27;46215;-73
2023/01/13 00:02:47;;;;;;;;;0.00;0.00;;;;;12.39;100.00;100830.31;5075077;28;45483;-73
2023/01/13 00:05:12;;;;;;;;;0.00;0.00;;;;;12.32;100.00;100828.53;5075762;27;47269;-74
2023/01/13 00:07:39;;;;;;;;;0.00;0.00;;;;;12.29;100.00;100825.84;5066876;28;46339;-72
2023/01/13 00:10:07;;;;;;;;;0.00;0.00;;;;;12.31;100.00;100821.47;5075664;27;45858;-74
2023/01/13 00:12:32;;;;;;;;;0.67;0.00;;;;;12.32;100.00;100818.81;5071534;27;46103;-73
2023/01/13 00:14:57;;;;;;;;;0.00;0.00;;;;;12.33;100.00;100814.41;5073639;27;45598;-73
2023/01/13 00:17:23;;;;;;;;;0.00;0.00;;;;;12.34;100.00;100816.16;5072170;28;56380;-73
2023/01/13 00:19:48;;;;;;;;;0.00;0.00;;;;;12.36;100.00;100813.53;5076075;27;45322;-73
2023/01/13 00:22:14;;;;;;;;;0.00;0.00;;;;;12.36;100.00;100811.78;5073686;27;45413;-74
2023/01/13 00:24:39;;;;;;;;;0.00;0.00;;;;;12.36;100.00;100802.94;5071093;28;50338;-74
2023/01/13 00:27:04;;;;;;;;;0.00;0.00;;;;;12.37;100.00;100812.66;5069491;27;61157;-73
2023/01/13 00:29:29;;;;;;;;;0.00;0.00;;;;;12.38;100.00;100817.97;5074327;28;60305;-73
2023/01/13 00:31:55;;;;;;;;;0.00;0.00;;;;;12.39;100.00;100813.53;5075274;28;51347;-73
2023/01/13 00:34:21;;;;;;;;;0.00;0.00;;;;;12.38;100.00;100817.06;5076169;27;45589;-73
2023/01/13 00:36:46;;;;;;;;;1.00;0.00;;;;;12.37;100.00;100823.25;5072024;27;46524;-73
2023/01/13 00:39:11;;;;;;;;;0.00;0.00;;;;;12.36;100.00;100821.47;5070092;27;56601;-73
2023/01/13 00:44:22;;;;;;;;;0.00;0.00;;;;;12.33;100.00;100817.06;5055500;28;45646;-73
2023/01/13 00:46:48;;;;;;;;;1.00;0.00;;;;;12.33;100.00;100803.81;5068322;28;53311;-73
2023/01/13 00:49:13;;;;;;;;;0.00;0.00;;;;;12.33;100.00;100795.88;5073612;28;57566;-73
2023/01/13 00:51:39;;;;;;;;;0.33;0.00;;;;;12.35;100.00;100794.09;5073426;28;45689;-73
2023/01/13 00:54:04;;;;;;;;;0.00;0.00;;;;;12.35;100.00;100790.56;5066116;28;45254;-73
2023/01/13 00:56:29;;;;;;;;;0.00;0.00;;;;;12.38;100.00;100782.66;5073785;28;60148;-73
2023/01/13 00:58:57;;;;;;;;;0.00;0.00;;;;;12.41;100.00;100796.81;5073080;28;59067;-73
2023/01/13 01:01:23;;;;;;;;;1.00;0.00;;;;;12.41;100.00;100785.28;5074959;27;47008;-73
2023/01/13 01:03:50;;;;;;;;;1.00;0.00;;;;;12.43;100.00;100797.69;5074719;27;46905;-73
2023/01/13 01:06:20;;;;;;;;;0.00;0.00;;;;;12.42;100.00;100803.84;5074939;27;47394;-73
2023/01/13 01:08:46;;;;;;;;;0.00;0.00;;;;;12.46;100.00;100802.09;5074837;27;45737;-73
2023/01/13 01:11:18;;;;;;;;;0.00;0.00;;;;;12.46;100.00;100800.31;5074949;27;45918;-73
2023/01/13 01:13:43;;;;;;;;;0.00;0.00;;;;;12.46;100.00;100805.59;5075045;27;45471;-74
2023/01/13 01:16:14;;;;;;;;;1.00;0.00;;;;;12.47;100.00;100798.56;5072040;27;46133;-73
2023/01/13 01:18:42;;;;;;;;;0.00;0.00;;;;;12.47;100.00;100790.63;5074640;27;45567;-73
2023/01/13 01:21:08;;;;;;;;;0.00;0.00;;;;;12.48;100.00;100795.94;5071743;27;45528;-73
2023/01/13 01:23:34;;;;;;;;;2.00;0.00;;;;;12.48;100.00;100792.41;5069907;27;45493;-73
2023/01/13 01:26:05;;;;;;;;;0.00;0.00;;;;;12.46;100.00;100778.25;5074878;28;46716;-74
2023/01/13 01:28:30;;;;;;;;;0.00;0.00;;;;;12.44;100.00;100786.19;5065982;27;45524;-73
2023/01/13 01:30:58;;;;;;;;;0.33;0.00;;;;;12.44;100.00;100782.66;5079317;27;45849;-73
2023/01/13 01:33:24;;;;;;;;;0.00;0.00;;;;;12.41;100.00;100799.44;5074294;28;45446;-73
2023/01/13 01:35:50;;;;;;;;;1.00;0.00;;;;;12.39;100.00;100795.88;5074269;27;46443;-73
2023/01/13 01:38:15;;;;;;;;;1.00;0.00;;;;;12.34;100.00;100784.41;5078198;27;45386;-73
2023/01/13 01:40:40;;;;;;;;;0.00;0.00;;;;;12.30;100.00;100794.13;5078769;27;52763;-73
2023/01/13 01:44:02;;;;;;;;;1.00;0.00;;;;;12.28;100.00;100795.84;5073405;28;49127;-73
2023/01/13 01:46:39;;;;;;;;;0.00;0.00;;;;;12.24;100.00;100793.19;5062646;28;46554;-73
2023/01/13 01:49:31;;;;;;;;;0.00;0.00;;;;;12.19;100.00;100794.94;5078297;27;45942;-74
2023/01/13 01:52:28;;;;;;;;;0.00;0.00;;;;;12.13;100.00;100784.31;5077247;28;45380;-73
2023/01/13 01:55:26;;;;;;;;;1.00;0.00;;;;;12.09;100.00;100794.03;5078627;27;45476;-73
2023/01/13 01:58:00;;;;;;;;;0.00;0.00;;;;;12.04;100.00;100794.00;5077465;27;46974;-73
2023/01/13 02:00:26;;;;;;;;;0.33;0.00;;;;;12.01;100.00;100793.09;5077906;27;45568;-73
2023/01/13 02:02:52;;;;;;;;;0.00;0.00;;;;;11.99;100.00;100814.28;5078391;27;45384;-73
2023/01/13 02:05:17;;;;;;;;;0.00;0.00;;;;;11.96;100.00;100822.19;5078035;28;57516;-73
2023/01/13 02:07:45;;;;;;;;;1.33;0.00;;;;;11.92;100.00;100815.09;5076331;27;46472;-73
2023/01/13 02:10:13;;;;;;;;;1.00;0.00;;;;;11.92;100.00;100824.81;5074723;27;45515;-74
2023/01/13 02:12:41;;;;;;;;;1.00;0.00;;;;;11.88;100.00;100830.94;5075945;27;45416;-73
2023/01/13 02:15:12;;;;;;;;;0.00;0.00;;;;;11.86;100.00;100838.00;5077017;27;45488;-73
2023/01/13 02:17:59;;;;;;;;;2.00;0.00;;;;;11.85;100.00;100845.06;5072535;28;47042;-73
2023/01/13 02:20:50;;;;;;;;;1.00;0.00;;;;;11.82;100.00;100834.44;5075305;28;45307;-73
2023/01/13 02:26:27;;;;;;;;;0.00;0.00;;;;;11.74;100.00;100826.44;5069264;28;45511;-72
2023/01/13 02:32:19;;;;;;;;;0.00;0.00;;;;;11.69;100.00;100827.28;5074936;28;45320;-73
2023/01/13 02:34:54;;;;;;;;;0.00;0.00;;;;;11.68;100.00;100825.53;5073510;28;46541;-74
2023/01/13 02:37:27;;;;;;;;;0.00;0.00;;;;;11.66;100.00;100835.19;5069003;28;45518;-74
2023/01/13 02:40:06;;;;;;;;;0.00;0.00;;;;;11.65;100.00;100834.31;5074033;28;47533;-73
2023/01/13 02:45:22;;;;;;;;;3.00;0.00;;;;;11.65;100.00;100838.72;5076162;28;45568;-73
2023/01/13 02:47:49;;;;;;;;;0.00;0.00;;;;;11.63;100.00;100844.00;5073099;27;45531;-73
2023/01/13 02:50:17;;;;;;;;;0.00;0.00;;;;;11.61;100.00;100845.78;5070936;28;47396;-74
2023/01/13 02:52:47;;;;;;;;;0.00;0.00;;;;;11.60;100.00;100851.91;5071832;28;45446;-73
2023/01/13 02:55:31;;;;;;;;;0.00;0.00;;;;;11.57;100.00;100851.91;5074536;28;45194;-73
2023/01/13 02:57:58;;;;;;;;;1.67;0.00;;;;;11.58;100.00;100861.59;5074314;27;45556;-73
2023/01/13 03:00:25;;;;;;;;;0.00;0.00;;;;;11.61;100.00;100858.06;5075664;28;47084;-73
2023/01/13 03:02:51;;;;;;;;;0.00;0.00;;;;;11.65;100.00;100849.31;5074946;28;45427;-73
2023/01/13 03:05:17;;;;;;;;;1.00;0.00;;;;;11.69;100.00;100843.16;5075322;28;45213;-73
2023/01/13 03:08:01;;;;;;;;;1.00;0.00;;;;;11.73;100.00;100858.19;5069336;27;46214;-74
2023/01/13 03:10:46;;;;;;;;;1.00;0.00;;;;;11.75;100.00;100856.41;5087215;27;46310;-73
2023/01/13 03:13:34;;;;;;;;;0.00;0.00;;;;;11.75;100.00;100857.31;5075035;27;45342;-73
2023/01/13 03:16:22;;;;;;;;;0.67;0.67;;;;;11.75;100.00;100861.72;5073037;27;45427;-73
2023/01/13 03:18:54;;;;;;;;;2.00;0.00;;;;;11.78;100.00;100864.41;5070790;28;45528;-73
2023/01/13 03:21:47;;;;;;;;;0.00;0.00;;;;;11.78;100.00;100854.69;5072187;28;47185;-73
2023/01/13 03:24:16;;;;;;;;;1.00;1.00;;;;;11.82;100.00;100867.97;5070837;28;45541;-73
2023/01/13 03:26:51;;;;;;;;;0.00;0.00;;;;;11.86;100.00;100886.50;5063539;28;45454;-73
2023/01/13 03:29:42;;;;;;;;;6.33;0.00;;;;;11.88;100.00;100865.34;5068775;28;45312;-74
2023/01/13 03:32:13;;;;;;;;;0.00;0.00;;;;;11.89;100.00;100869.78;5060983;28;47320;-73
2023/01/13 03:34:44;;;;;;;;;0.00;0.00;;;;;11.84;100.00;100888.28;5074316;28;45547;-73
2023/01/13 03:37:11;;;;;;;;;1.00;0.00;;;;;11.85;100.00;100873.28;5069794;27;45411;-73
2023/01/13 03:39:39;;;;;;;;;3.00;0.00;;;;;11.85;100.00;100873.28;5069793;28;45507;-73
2023/01/13 03:42:09;;;;;;;;;0.67;0.00;;;;;11.82;100.00;100874.13;5065258;28;47713;-73
2023/01/13 03:44:41;;;;;;;;;3.00;0.00;;;;;11.85;100.00;100868.00;5070540;28;45547;-73
2023/01/13 03:47:28;;;;;;;;;0.00;0.00;;;;;11.87;100.00;100860.94;5070116;28;45358;-73
2023/01/13 03:50:13;;;;;;;;;0.00;0.00;;;;;11.89;100.00;100873.31;5073264;28;45563;-73
2023/01/13 03:52:47;;;;;;;;;0.00;0.00;;;;;11.92;100.00;100872.44;5073671;27;47433;-73
2023/01/13 03:55:18;;;;;;;;;0.00;0.00;;;;;11.89;100.00;100865.38;5075216;27;45330;-73
2023/01/13 03:57:50;;;;;;;;;0.00;0.00;;;;;11.89;100.00;100856.56;5073520;27;45248;-73
2023/01/13 04:00:17;;;;;;;;;0.67;0.00;;;;;11.91;100.00;100858.31;5067299;28;45471;-73
2023/01/13 04:02:52;;;;;;;;;2.33;0.00;;;;;11.94;100.00;100862.75;5067049;28;47534;-73
2023/01/13 04:05:18;;;;;;;;;3.00;0.00;;;;;11.98;100.00;100864.53;5067851;28;45479;-72
2023/01/13 04:07:52;;;;;;;;;0.00;0.00;;;;;11.95;100.00;100870.69;5074923;28;45359;-73
2023/01/13 04:10:23;;;;;;;;;0.67;0.00;;;;;11.98;100.00;100875.09;5076496;28;45461;-73
2023/01/13 04:13:10;;;;;;;;;0.00;0.00;;;;;11.93;100.00;100877.75;5070790;28;46249;-73
2023/01/13 04:15:41;;;;;;;;;0.00;0.00;;;;;11.87;100.00;100887.41;5067769;28;45674;-73
2023/01/13 04:18:26;;;;;;;;;1.00;0.00;;;;;11.82;100.00;100884.72;5068730;28;45245;-73
2023/01/13 04:20:53;;;;;;;;;1.67;0.00;;;;;11.79;100.00;100892.63;5072904;28;45555;-73
2023/01/13 04:23:20;;;;;;;;;0.00;0.00;;;;;11.75;100.00;100889.06;5070994;27;46561;-73
2023/01/13 04:25:46;;;;;;;;;0.00;0.00;;;;;11.74;100.00;100894.34;5069289;28;45487;-73
2023/01/13 04:28:12;;;;;;;;;1.00;0.00;;;;;11.70;100.00;100900.47;5074390;27;45496;-73
2023/01/13 04:30:38;;;;;;;;;3.00;0.00;;;;;11.65;100.00;100904.84;5073529;27;45386;-73
2023/01/13 04:33:04;;;;;;;;;0.00;0.00;;;;;11.60;100.00;100918.03;5075444;27;46593;-74
2023/01/13 04:35:30;;;;;;;;;0.00;0.00;;;;;11.54;100.00;100900.34;5069473;28;45235;-74
2023/01/13 04:37:56;;;;;;;;;3.33;0.00;;;;;11.57;100.00;100915.38;5066789;28;46418;-73
2023/01/13 04:40:21;;;;;;;;;0.00;0.00;;;;;11.60;100.00;100914.50;5072217;28;45328;-73
2023/01/13 04:42:46;;;;;;;;;1.00;0.00;;;;;11.61;100.00;100914.53;5068267;28;47202;-73
2023/01/13 04:45:12;;;;;;;;;0.00;0.00;;;;;11.65;100.00;100918.06;5068417;28;45498;-73
2023/01/13 04:47:40;;;;;;;;;0.00;0.00;;;;;11.65;100.00;100918.94;5071065;27;45483;-73
2023/01/13 04:50:06;;;;;;;;;0.00;0.00;;;;;11.63;100.00;100912.78;5075748;28;46124;-73
2023/01/13 04:52:31;;;;;;;;;0.00;0.00;;;;;11.57;100.00;100909.19;5067350;28;47514;-73
2023/01/13 04:54:57;;;;;;;;;1.00;0.00;;;;;11.52;100.00;100912.69;5066786;28;60724;-73
2023/01/13 04:57:22;;;;;;;;;0.00;0.00;;;;;11.45;100.00;100920.53;5073667;27;45145;-73
2023/01/13 04:59:47;;;;;;;;;1.00;0.00;;;;;11.42;100.00;100916.13;5072547;27;45272;-73
2023/01/13 05:02:18;;;;;;;;;0.00;0.00;;;;;11.39;100.00;100929.28;5078720;27;46501;-72
2023/01/13 05:04:47;;;;;;;;;0.00;0.00;;;;;11.36;100.00;100913.44;5076297;27;45433;-73
2023/01/13 05:07:14;;;;;;;;;0.00;0.00;;;;;11.30;100.00;100918.66;5073806;28;45561;-73
2023/01/13 05:09:39;;;;;;;;;1.00;0.00;;;;;11.30;100.00;100928.34;5073728;27;45394;-73
2023/01/13 05:17:32;;;;;;;;;1.00;0.00;;;;;11.20;100.00;100917.69;5077039;28;45401;-73
2023/01/13 05:19:58;;;;;;;;;2.33;0.33;;;;;11.19;100.00;100934.41;5072655;28;45576;-73
2023/01/13 05:25:20;;;;;;;;;3.00;0.00;;;;;11.16;100.00;100944.94;5072135;28;45360;-73
2023/01/13 05:27:45;;;;;;;;;0.00;0.00;;;;;11.13;100.00;100950.22;5078215;28;45202;-73
2023/01/13 05:30:11;;;;;;;;;0.67;0.00;;;;;11.15;100.00;100963.44;5075344;27;45526;-73
2023/01/13 05:32:36;;;;;;;;;2.33;0.00;;;;;11.15;100.00;100955.50;5074084;28;46494;-73
2023/01/13 05:35:02;;;;;;;;;2.00;0.00;;;;;11.14;100.00;100972.25;5073321;28;61116;-73
2023/01/13 05:37:27;;;;;;;;;0.00;0.00;;;;;11.13;100.00;100973.09;5076109;28;45504;-73
2023/01/13 05:45:21;;;;;;;;;0.00;0.00;;;;;11.06;100.00;100965.97;5077073;28;45544;-73
2023/01/13 05:47:47;;;;;;;;;0.00;0.00;;;;;11.04;100.00;100976.53;5076092;27;54545;-73
2023/01/13 05:50:12;;;;;;;;;0.00;0.00;;;;;11.05;100.00;100974.78;5071634;27;46139;-72
2023/01/13 05:52:38;;;;;;;;;0.00;0.00;;;;;11.04;100.00;100976.53;5072172;27;46618;-72
2023/01/13 05:55:03;;;;;;;;;0.00;0.00;;;;;11.02;100.00;100980.88;5073042;28;45340;-73
2023/01/13 05:57:29;;;;;;;;;6.00;0.00;;;;;10.99;100.00;100984.41;5074889;27;45551;-76
2023/01/13 05:59:54;;;;;;;;;0.00;0.00;;;;;10.98;100.00;100981.75;5075495;27;45241;-79
2023/01/13 06:02:19;;;;;;;;;3.33;0.00;;;;;10.95;100.00;100977.28;5075610;27;50416;-78
2023/01/13 06:04:45;;;;;;;;;0.00;0.00;;;;;10.93;100.00;100984.34;5069152;28;53018;-78
2023/01/13 06:07:11;;;;;;;;;0.00;0.00;;;;;10.91;100.00;100996.63;5075056;28;45386;-77
2023/01/13 06:09:36;;;;;;;;;0.67;0.00;;;;;10.90;100.00;101001.88;5074867;28;45551;-77
2023/01/13 06:12:02;;;;;;;;;0.00;0.00;;;;;10.90;100.00;100999.25;5071106;28;60386;-78
2023/01/13 06:14:38;;;;;;;;;1.33;0.00;;;;;10.88;100.00;101011.56;5076463;28;45435;-75
2023/01/13 06:17:06;;;;;;;;;0.00;0.00;;;;;10.89;100.00;101021.25;5076665;28;45518;-74
2023/01/13 06:19:31;;;;;;;;;1.00;1.00;;;;;10.87;100.00;101015.97;5078137;27;45475;-74
2023/01/13 06:21:57;;;;;;;;;0.00;0.00;;;;;10.86;100.00;101018.56;5076992;28;51429;-74
2023/01/13 06:24:22;;;;;;;;;0.00;0.00;;;;;10.85;100.00;101025.59;5071411;27;57532;-74
2023/01/13 06:26:47;;;;;;;;;2.33;0.00;;;;;10.85;100.00;101035.28;5070279;27;57049;-74
2023/01/13 06:29:15;;;;;;;;;0.00;0.00;;;;;10.84;100.00;101041.44;5069773;28;55425;-74
2023/01/13 06:31:41;;;;;;;;;0.00;0.00;;;;;10.85;100.00;101044.09;5075604;27;46317;-74
2023/01/13 06:34:11;;;;;;;;;2.00;0.00;;;;;10.85;100.00;101052.00;5073264;27;54756;-73
2023/01/13 06:36:41;;;;;;;;;1.67;0.00;;;;;10.81;100.00;101051.94;5072100;28;45446;-73
2023/01/13 06:39:07;;;;;;;;;4.00;0.00;;;;;10.81;100.00;101046.66;5070138;28;45464;-74
2023/01/13 06:44:17;;;;;;;;;0.00;0.00;;;;;10.79;100.00;101067.78;5069572;28;45465;-74
2023/01/13 06:46:42;;;;;;;;;2.00;0.00;;;;;10.80;100.00;101059.00;5073360;28;45823;-74
2023/01/13 06:49:08;;;;;;;;;0.00;0.00;;;;;10.80;100.00;101060.75;5074793;27;53019;-73
2023/01/13 06:51:33;;;;;;;;;0.67;0.00;;;;;10.81;100.00;101062.50;5072913;28;59749;-74
2023/01/13 06:53:59;;;;;;;;;2.00;0.00;;;;;10.80;100.00;101066.91;5070647;28;45549;-72
2023/01/13 06:56:24;;;;;;;;;2.33;0.00;;;;;10.84;100.00;101070.50;5071953;28;45488;-75
2023/01/13 06:58:49;;;;;;;;;1.00;0.00;;;;;10.86;100.00;101069.63;5077186;27;55752;-72
2023/01/13 07:01:15;;;;;;;;;4.33;0.00;;;;;10.92;100.00;101067.09;5076545;27;60685;-73
2023/01/13 07:03:40;;;;;;;;;2.67;0.00;;;;;10.95;100.00;101072.41;5079341;27;57428;-74
2023/01/13 07:06:06;;;;;;;;;1.67;0.00;;;;;10.95;100.00;101076.81;5077138;27;56069;-72
2023/01/13 07:08:31;;;;;;;;;0.00;0.00;;;;;10.95;100.00;101066.25;5067907;28;45572;-72
2023/01/13 07:10:57;;;;;;;;;0.00;0.00;;;;;10.92;100.00;101080.31;5073073;27;48585;-72
2023/01/13 07:16:08;;;;;;;;;1.33;0.00;;;;;10.86;100.00;101095.16;5071071;28;45489;-73
2023/01/13 07:18:34;;;;;;;;;0.00;0.00;;;;;10.84;100.00;101111.00;5077844;27;45287;-74
2023/01/13 07:21:01;;;;;;;;;0.00;0.00;;;;;10.88;100.00;101107.53;5076754;28;47798;-74
2023/01/13 07:23:28;;;;;;;;;0.00;0.00;;;;;10.89;100.00;101111.06;5076407;27;45348;-73
2023/01/13 07:25:55;;;;;;;;;1.33;0.00;;;;;10.92;100.00;101108.47;5075106;27;45526;-73
2023/01/13 07:28:20;;;;;;;;;1.00;0.00;;;;;10.90;100.00;101111.09;5069846;27;46121;-75
2023/01/13 07:30:46;;;;;;;;;0.33;0.00;;;;;10.93;100.00;101110.25;5065282;27;45730;-73
2023/01/13 07:33:11;;;;;;;;;0.00;0.00;;;;;10.94;100.00;101112.91;5064103;27;45441;-74
2023/01/13 07:35:37;;;;;;;;;1.00;0.00;;;;;10.96;100.00;101110.28;5072448;27;50795;-73
2023/01/13 07:38:02;;;;;;;;;1.33;0.00;;;;;10.97;100.00;101126.19;5069094;28;45418;-74
2023/01/13 07:40:27;;;;;;;;;0.00;0.00;;;;;10.94;100.00;101126.13;5070990;27;46626;-74
2023/01/13 07:45:36;;;;;;;;;1.33;0.00;;;;;10.87;100.00;101126.91;5075131;28;45476;-75
2023/01/13 07:48:02;;;;;;;;;1.67;0.00;;;;;10.85;100.00;101125.09;5070256;27;49032;-75
2023/01/13 07:50:27;;;;;;;;;1.33;0.00;;;;;10.84;100.00;101129.50;5071953;27;47595;-74
2023/01/13 07:52:56;;;;;;;;;0.00;0.00;;;;;10.83;100.00;101132.13;5067253;28;45467;-74
2023/01/13 07:55:22;;;;;;;;;0.00;0.00;;;;;10.83;100.00;101154.13;5066954;28;45369;-73
2023/01/13 07:57:47;;;;;;;;;3.67;0.67;;;;;10.84;100.00;101161.19;5069072;27;49903;-73
2023/01/13 08:00:13;;;;;;;;;0.67;0.00;;;;;10.86;100.00;101162.09;5069251;27;47299;-75
2023/01/13 08:02:39;;;;;;;;;0.00;0.00;;;;;10.87;100.00;101170.94;5070702;28;45814;-76
2023/01/13 08:05:05;;;;;;;;;3.00;0.00;;;;;10.87;100.00;101174.47;5065792;28;45443;-73
2023/01/13 08:07:31;;;;;;;;;2.33;0.00;;;;;10.87;100.00;101179.75;5070857;28;45536;-74
2023/01/13 08:09:56;;;;;;;;;0.00;0.00;;;;;10.87;100.00;101194.72;5071489;27;57038;-75
2023/01/13 08:15:08;;;;;;;;;7.67;2.00;;;;;10.83;100.00;101183.19;5071415;28;45516;-76
2023/01/13 08:17:34;;;;;;;;;2.00;0.67;;;;;10.80;100.00;101175.22;5072434;28;45527;-76
2023/01/13 08:19:59;;;;;;;;;1.67;0.00;;;;;10.81;100.00;101190.19;5074582;27;47166;-74
2023/01/13 08:22:25;;;;;;;;;0.00;0.00;;;;;10.82;100.00;101186.72;5071588;28;61362;-75
2023/01/13 08:24:50;;;;;;;;;0.00;0.00;;;;;10.81;100.00;101195.47;5066521;28;49088;-74
2023/01/13 08:27:15;;;;;;;;;0.33;0.00;;;;;10.82;100.00;101202.56;5071364;28;54045;-75
2023/01/13 08:29:41;;;;;;;;;2.00;0.00;;;;;10.83;100.00;101199.03;5067043;28;52423;-73
2023/01/13 08:32:06;;;;;;;;;0.00;0.00;;;;;10.82;100.00;101196.38;5073772;27;58286;-74
2023/01/13 08:34:31;;;;;;;;;2.67;0.00;;;;;10.87;100.00;101198.25;5073524;28;45524;-73
2023/01/13 08:36:57;;;;;;;;;4.00;1.00;;;;;10.89;100.00;101201.78;5071753;27;45966;-75
2023/01/13 08:39:23;;;;;;;;;3.67;1.00;;;;;10.92;100.00;101204.47;5070249;27;62435;-76
2023/01/13 08:41:54;;;;;;;;;0.67;0.67;;;;;10.92;100.00;101204.47;5069749;28;45450;-75
2023/01/13 08:44:23;;;;;;;;;5.00;1.00;;;;;10.90;100.00;101215.88;5068161;28;45524;-73
2023/01/13 08:46:49;;;;;;;;;1.33;0.00;;;;;10.85;100.00;101205.22;5069641;27;45554;-77
2023/01/13 08:49:15;;;;;;;;;4.00;0.00;;;;;10.85;100.00;101215.78;5074615;27;45658;-75
2023/01/13 08:51:41;;;;;;;;;2.00;1.00;;;;;10.83;100.00;101217.53;5072729;27;45645;-75
2023/01/13 08:54:06;;;;;;;;;0.00;0.00;;;;;10.84;100.00;101219.31;5074623;27;55175;-74
2023/01/13 08:56:31;;;;;;;;;0.33;0.00;;;;;10.83;100.00;101211.38;5067676;27;46762;-74
2023/01/13 08:58:58;;;;;;;;;1.00;1.00;;;;;10.82;100.00;101217.53;5074225;28;45579;-74
2023/01/13 09:01:24;;;;;;;;;0.67;0.00;;;;;10.83;100.00;101212.25;5071193;27;45476;-75
2023/01/13 09:03:49;;;;;;;;;2.00;0.00;;;;;10.86;100.00;101222.84;5074610;28;45290;-74
2023/01/13 09:06:15;;;;;;;;;2.33;1.00;;;;;10.87;100.00;101226.41;5070653;28;45642;-73
2023/01/13 09:08:40;;;;;;;;;2.33;0.00;;;;;10.84;100.00;101224.59;5072851;27;59438;-75
2023/01/13 09:13:10;;;;;;;;;3.00;0.00;;;;;10.82;100.00;101234.25;5073528;27;45521;-74
2023/01/13 09:13:51;;;;;;;;;3.00;0.00;;;;;10.85;100.00;101229.00;5074763;28;45309;-74
2023/01/13 09:16:17;;;;;;;;;2.00;0.00;;;;;10.87;100.00;101234.34;5073509;27;55336;-75
2023/01/13 09:18:42;;;;;;;;;2.00;0.00;;;;;10.87;100.00;101236.97;5073224;28;65773;-76
2023/01/13 09:21:11;;;;;;;;;4.00;0.00;;;;;10.89;100.00;101235.25;5070998;28;51754;-74
2023/01/13 09:23:36;;;;;;;;;0.00;0.00;;;;;10.87;100.00;101216.72;5072475;28;51149;-74
2023/01/13 09:26:01;;;;;;;;;2.33;0.33;;;;;10.87;100.00;101237.88;5067017;28;55745;-75
2023/01/13 09:28:27;;;;;;;;;1.00;0.00;;;;;10.83;100.00;101246.59;5068944;27;46248;-74
2023/01/13 09:30:52;;;;;;;;;3.00;0.00;;;;;10.84;100.00;101244.84;5067768;28;60023;-74
2023/01/13 09:36:01;;;;;;;;;4.00;0.00;;;;;10.81;100.00;101240.38;5070574;28;45600;-73
2023/01/13 09:38:27;;;;;;;;;0.00;0.00;;;;;10.84;100.00;101256.28;5069557;28;46642;-74
2023/01/13 09:40:53;;;;;;;;;1.00;1.00;;;;;10.88;100.00;101268.69;5071474;27;45587;-74
2023/01/13 09:49:09;;;;;;;;;3.00;1.00;;;;;11.21;100.00;101260.41;5068416;28;45492;-74
2023/01/13 09:51:39;;;;;;;;;0.00;0.00;;;;;11.30;100.00;101278.19;5073890;27;45396;-75
2023/01/13 09:54:14;;;;;;;;;0.67;0.67;;;;;11.37;100.00;101287.97;5065952;28;45482;-75
2023/01/13 09:56:40;;;;;;;;;0.00;0.00;;;;;11.38;100.00;101279.16;5073766;28;45470;-75
2023/01/13 10:01:45;;;;;;;;;3.67;0.00;;;;;11.34;100.00;101282.63;5104028;22;45405;-75
2023/01/13 10:04:13;;;;;;;;;0.00;0.00;;;;;11.34;100.00;101290.56;5073749;28;45571;-74
2023/01/13 10:06:45;;;;;;;;;0.00;0.00;;;;;11.33;100.00;101283.50;5074210;28;45429;-74
2023/01/13 10:09:20;;;;;;;;;0.00;0.00;;;;;11.30;100.00;101279.94;5071367;28;46411;-74
2023/01/13 10:14:38;;;;;;;;;4.00;0.00;;;;;11.28;100.00;101293.09;5074110;27;45323;-74
2023/01/13 10:17:16;;;;;;;;;0.00;0.00;;;;;11.26;100.00;101294.84;5070614;28;45634;-74
2023/01/13 10:19:49;;;;;;;;;2.00;0.00;;;;;11.30;100.00;101312.53;5068467;27;46576;-75
2023/01/13 10:22:20;;;;;;;;;2.33;0.00;;;;;11.29;100.00;101310.75;5074854;28;45603;-75
2023/01/13 10:24:46;;;;;;;;;6.00;1.00;;;;;11.28;100.00;101299.28;5070458;28;45562;-75
2023/01/13 10:27:24;;;;;;;;;2.67;0.00;;;;;11.31;100.00;101308.16;5071243;28;45587;-75
2023/01/13 10:29:49;;;;;;;;;0.00;0.00;;;;;11.33;100.00;101311.69;5068760;27;47454;-73
2023/01/13 10:32:14;;;;;;;;;0.00;0.00;;;;;11.34;100.00;101309.06;5073886;27;59120;-75
2023/01/13 10:34:50;;;;;;;;;1.00;1.00;;;;;11.31;100.00;101313.44;5073698;28;51551;-73
2023/01/13 10:37:25;;;;;;;;;1.33;0.67;;;;;11.39;100.00;101319.72;5075863;27;45513;-76
2023/01/13 10:39:54;;;;;;;;;2.00;0.00;;;;;11.52;100.00;101327.88;5073103;27;47391;-74
2023/01/13 10:42:23;;;;;;;;;1.00;0.00;;;;;11.69;100.00;101328.09;5076571;27;47176;-73
2023/01/13 10:44:52;;;;;;;;;2.00;0.00;;;;;11.90;100.00;101326.66;5075631;28;45584;-74
2023/01/13 10:47:26;;;;;;;;;1.33;0.67;;;;;12.07;100.00;101323.38;5077319;27;45489;-74
2023/01/13 10:50:14;;;;;;;;;0.33;0.33;;;;;12.27;100.00;101325.38;5069938;27;47512;-74
2023/01/13 10:53:20;;;;;;;;;0.00;0.00;;;;;12.35;100.00;101347.53;5071519;28;45387;-74
2023/01/13 10:56:00;;;;;;;;;0.00;0.00;;;;;12.41;100.00;101352.91;5067631;28;45532;-75
2023/01/13 10:58:26;;;;;;;;;0.00;0.00;;;;;12.44;100.00;101363.53;5069583;28;45467;-74
2023/01/13 11:01:00;;;;;;;;;2.00;0.00;;;;;12.46;100.00;101359.13;5077016;27;46788;-74
2023/01/13 11:03:34;;;;;;;;;0.00;0.00;;;;;12.43;100.00;101350.28;5072590;28;45569;-75
2023/01/13 11:05:59;;;;;;;;;0.33;0.00;;;;;12.36;100.00;101357.28;5074745;27;45642;-75
2023/01/13 11:08:30;;;;;;;;;2.00;0.00;;;;;12.26;100.00;101358.03;5076954;27;45579;-75
2023/01/13 11:10:57;;;;;;;;;0.00;0.00;;;;;12.14;100.00;101368.44;5073195;27;47474;-74
2023/01/13 11:13:34;;;;;;;;;4.33;0.00;;;;;12.09;100.00;101378.06;5073263;28;47210;-74
2023/01/13 11:16:09;;;;;;;;;0.00;0.00;;;;;12.11;100.00;101368.41;5071327;28;45437;-74
2023/01/13 11:19:01;;;;;;;;;1.00;0.67;;;;;12.17;100.00;101363.19;5069276;28;45383;-76
2023/01/13 11:21:49;;;;;;;;;1.33;0.00;;;;;12.25;100.00;101373.03;5072689;28;46469;-75
2023/01/13 11:24:20;;;;;;;;;1.00;1.00;;;;;12.30;100.00;101370.41;5070200;27;45503;-75
2023/01/13 11:26:57;;;;;;;;;2.00;0.00;;;;;12.34;100.00;101377.53;5071777;28;45575;-75
2023/01/13 11:29:40;;;;;;;;;1.00;0.00;;;;;12.35;100.00;101374.00;5068194;27;45681;-74
2023/01/13 11:32:26;;;;;;;;;2.00;0.67;;;;;12.26;100.00;101380.09;5070771;28;47507;-75
2023/01/13 11:34:59;;;;;;;;;0.00;0.00;;;;;12.15;100.00;101373.78;5063033;28;45410;-79
2023/01/13 11:37:31;;;;;;;;;4.33;0.00;;;;;12.27;100.00;101373.91;5074619;27;45464;-77
2023/01/13 11:40:16;;;;;;;;;2.33;0.00;;;;;12.39;100.00;101380.25;5071126;28;45637;-77
2023/01/13 11:43:06;;;;;;;;;0.00;0.00;;;;;12.52;100.00;101390.13;5075356;28;45580;-79
2023/01/13 11:45:40;;;;;;;;;1.67;0.00;;;;;12.61;100.00;101384.03;5071011;28;45594;-82
2023/01/13 11:48:11;;;;;;;;;1.00;0.00;;;;;12.72;100.00;101392.97;5069102;27;45468;-82
2023/01/13 11:50:47;;;;;;;;;0.00;0.00;;;;;12.80;100.00;101391.31;5067036;28;45570;-79
2023/01/13 11:53:47;;;;;;;;;4.67;0.00;;;;;12.82;100.00;101386.91;5067571;28;46651;-76
2023/01/13 11:56:40;;;;;;;;;0.00;0.00;;;;;12.81;100.00;101391.31;5067022;28;45306;-76
2023/01/13 11:59:17;;;;;;;;;1.00;0.00;;;;;12.86;100.00;101394.03;5075323;28;46093;-75
2023/01/13 12:01:56;;;;;;;;;1.33;0.00;;;;;12.88;100.00;101400.22;5075129;27;45568;-76
2023/01/13 12:04:32;;;;;;;;;0.00;0.00;;;;;12.81;100.00;101395.75;5075328;28;47620;-75
2023/01/13 12:07:12;;;;;;;;;2.00;0.00;;;;;12.67;100.00;101402.63;5068117;28;45538;-75
2023/01/13 12:10:16;;;;;;;;;0.67;0.00;;;;;12.59;100.00;101387.56;5066519;28;45507;-74
2023/01/13 12:12:55;;;;;;;;;5.67;1.00;;;;;12.50;100.00;101383.91;5067473;28;45345;-75
2023/01/13 12:15:21;;;;;;;;;0.00;0.00;;;;;12.45;100.00;101381.19;5068520;27;46562;-76
2023/01/13 12:18:17;;;;;;;;;0.00;0.00;;;;;12.45;100.00;101389.13;5072552;28;45501;-77
2023/01/13 12:20:57;;;;;;;;;1.00;0.00;;;;;12.44;100.00;101383.84;5070920;28;45488;-76